Time;durP1;ratioP1;P1;durP2;ratioP2;P2;SDS_P1;SDS_P2;PMS_P1;PMS_P2;Temp;Humidity;BMP_temperature;BMP_pressure;BME280_temperature;BME280_humidity;BME280_pressure;Samples;Min_cycle;Max_cycle;Signal;HPM_P1;HPM_P2
2023/03/31 00:01:18;;;;;;;3.88;1.95;;;;;;;20.00;54.32;99181.53;5007761;28;20027;-68
2023/03/31 00:03:44;;;;;;;4.25;2.20;;;;;;;19.99;54.39;99190.44;4995759;28;20424;-67
2023/03/31 00:06:11;;;;;;;5.53;2.10;;;;;;;19.99;54.54;99201.03;5005647;28;20018;-66
2023/03/31 00:08:39;;;;;;;3.45;1.88;;;;;;;19.99;54.54;99203.69;4987531;28;20065;-69
2023/03/31 00:11:08;;;;;;;4.82;2.03;;;;;;;19.97;54.62;99197.63;5009706;28;20049;-69
2023/03/31 00:13:35;;;;;;;3.97;2.03;;;;;;;19.98;54.49;99194.03;5000596;28;20026;-66
2023/03/31 00:16:08;;;;;;;3.90;1.88;;;;;;;19.97;54.37;99181.75;4992556;28;20035;-68
2023/03/31 00:18:35;;;;;;;4.38;2.17;;;;;;;19.96;54.40;99165.00;4992942;28;20018;-68
2023/03/31 00:21:55;;;;;;;3.30;1.60;;;;;;;19.96;54.14;99166.81;4991292;28;20366;-67
2023/03/31 00:24:09;;;;;;;4.97;2.00;;;;;;;19.93;54.44;99182.84;4967663;28;20046;-66
2023/03/31 00:26:35;;;;;;;4.80;1.98;;;;;;;19.92;54.57;99179.38;4973059;28;20481;-67
2023/03/31 00:29:02;;;;;;;4.82;2.10;;;;;;;19.94;54.22;99187.19;4973144;28;20031;-67
2023/03/31 00:31:28;;;;;;;4.70;2.17;;;;;;;19.93;54.43;99177.53;4978513;28;20022;-67
2023/03/31 00:33:54;;;;;;;3.78;2.08;;;;;;;19.92;54.18;99170.56;4992667;28;20392;-67
2023/03/31 00:36:20;;;;;;;4.68;2.10;;;;;;;19.90;54.31;99165.34;4992686;28;20038;-67
2023/03/31 00:38:50;;;;;;;4.07;1.83;;;;;;;19.90;54.25;99159.22;4992408;28;20022;-68
2023/03/31 00:41:16;;;;;;;5.93;2.22;;;;;;;19.89;54.46;99158.34;4992545;28;20026;-66
2023/03/31 00:44:26;;;;;;;4.97;2.08;;;;;;;19.88;54.43;99158.44;4992298;28;20073;-67
2023/03/31 00:46:57;;;;;;;3.72;2.20;;;;;;;19.85;54.29;99167.41;4992053;28;20023;-65
2023/03/31 00:49:30;;;;;;;3.47;1.90;;;;;;;19.84;54.49;99166.59;4992243;28;20054;-66
2023/03/31 00:52:04;;;;;;;3.30;1.75;;;;;;;19.83;54.44;99154.28;4982771;28;20035;-65
2023/03/31 00:54:32;;;;;;;4.72;1.92;;;;;;;19.84;54.18;99158.63;4972823;28;20027;-67
2023/03/31 00:57:02;;;;;;;3.58;1.77;;;;;;;19.83;54.40;99159.59;4972923;28;20023;-67
2023/03/31 00:59:30;;;;;;;4.00;1.90;;;;;;;19.83;54.56;99170.19;4972380;28;20027;-67
2023/03/31 01:02:01;;;;;;;4.22;1.63;;;;;;;19.82;54.46;99173.75;4972978;28;20078;-65
2023/03/31 01:04:32;;;;;;;5.03;2.17;;;;;;;19.83;54.20;99158.72;4972878;28;20023;-66
2023/03/31 01:07:08;;;;;;;3.45;2.00;;;;;;;19.83;54.12;99170.19;4972926;28;20034;-66
2023/03/31 01:09:34;;;;;;;3.55;1.70;;;;;;;19.82;54.45;99168.44;4972623;28;20038;-67
2023/03/31 01:12:02;;;;;;;3.67;1.90;;;;;;;19.82;54.17;99173.75;4972806;28;20023;-66
2023/03/31 01:14:28;;;;;;;3.30;1.85;;;;;;;19.81;54.25;99177.34;4972269;28;20030;-67
2023/03/31 01:16:53;;;;;;;3.83;1.95;;;;;;;19.81;54.31;99177.34;4972754;28;20019;-67
2023/03/31 01:19:32;;;;;;;4.25;1.90;;;;;;;19.81;54.37;99203.81;4972565;28;20054;-66
2023/03/31 01:22:12;;;;;;;3.85;2.30;;;;;;;19.81;54.20;99198.53;4971419;28;20033;-67
2023/03/31 01:24:37;;;;;;;3.03;2.00;;;;;;;19.81;54.39;99182.63;4972444;28;20543;-67
2023/03/31 01:27:05;;;;;;;4.68;1.70;;;;;;;19.81;54.08;99193.22;4972638;28;20035;-67
2023/03/31 01:29:52;;;;;;;3.67;2.22;;;;;;;19.81;54.47;99187.94;4972296;28;20035;-67
2023/03/31 01:32:49;;;;;;;3.70;1.80;;;;;;;19.81;54.22;99171.22;4972386;28;20026;-66
2023/03/31 01:35:45;;;;;;;5.03;2.03;;;;;;;19.80;54.41;99159.75;4972729;28;20114;-67
2023/03/31 01:39:00;;;;;;;3.10;1.70;;;;;;;19.79;54.09;99171.31;4974108;28;20034;-66
2023/03/31 01:41:25;;;;;;;3.60;1.80;;;;;;;19.79;54.13;99187.19;4976251;28;20262;-65
2023/03/31 01:44:00;;;;;;;3.42;1.90;;;;;;;19.77;54.35;99172.34;4975535;28;20039;-66
2023/03/31 01:46:35;;;;;;;3.15;1.63;;;;;;;19.78;54.32;99182.84;4975982;28;20035;-67
2023/03/31 01:49:19;;;;;;;3.63;2.03;;;;;;;19.77;54.11;99180.28;4983195;28;20054;-67
2023/03/31 01:52:07;;;;;;;3.67;1.50;;;;;;;19.78;54.27;99171.38;5014693;28;20060;-67
2023/03/31 01:54:49;;;;;;;4.72;1.77;;;;;;;19.76;54.37;99184.72;4981821;28;20030;-67
2023/03/31 01:57:30;;;;;;;3.08;1.70;;;;;;;19.75;54.35;99198.91;4994904;28;20030;-68
2023/03/31 02:00:07;;;;;;;2.53;1.35;;;;;;;19.74;54.21;99197.19;4995268;28;20038;-67
2023/03/31 02:02:46;;;;;;;3.58;1.88;;;;;;;19.75;54.21;99193.59;5000183;28;20084;-67
2023/03/31 02:05:17;;;;;;;3.00;1.70;;;;;;;19.74;54.04;99191.91;4996965;28;20061;-66
2023/03/31 02:07:51;;;;;;;2.88;1.75;;;;;;;19.74;54.42;99199.84;5014396;28;20109;-67
2023/03/31 02:10:19;;;;;;;2.28;1.40;;;;;;;19.73;54.46;99212.22;5014464;28;20032;-67
2023/03/31 02:12:46;;;;;;;3.13;1.50;;;;;;;19.70;54.28;99193.03;5014080;28;20034;-65
2023/03/31 02:15:20;;;;;;;2.55;1.50;;;;;;;19.71;54.29;99200.03;5014555;28;20084;-67
2023/03/31 02:17:49;;;;;;;2.92;1.70;;;;;;;19.72;54.38;99201.75;5014525;28;20030;-67
2023/03/31 02:20:20;;;;;;;4.57;2.05;;;;;;;19.70;54.43;99200.97;5014341;28;20427;-67
2023/03/31 02:22:51;;;;;;;2.95;1.70;;;;;;;19.70;54.42;99195.66;5014223;28;20022;-67
2023/03/31 02:25:20;;;;;;;2.00;1.40;;;;;;;19.68;54.16;99193.13;5014514;28;20037;-68
2023/03/31 02:27:52;;;;;;;2.70;1.33;;;;;;;19.69;54.45;99200.13;5013919;28;20129;-66
2023/03/31 02:30:18;;;;;;;3.75;1.40;;;;;;;19.67;54.44;99206.47;5014123;28;20033;-67
2023/03/31 02:32:45;;;;;;;3.45;1.52;;;;;;;19.69;54.15;99215.16;5001434;28;20096;-67
2023/03/31 02:35:15;;;;;;;4.05;1.80;;;;;;;19.67;54.43;99207.28;4993139;28;20134;-67
2023/03/31 02:37:42;;;;;;;2.20;1.50;;;;;;;19.68;54.07;99209.03;4994465;28;20034;-65
2023/03/31 02:40:20;;;;;;;4.28;1.70;;;;;;;19.66;54.11;99220.63;4994467;28;20065;-66
2023/03/31 02:42:46;;;;;;;4.63;1.55;;;;;;;19.66;54.18;99231.22;4994182;28;20070;-69
2023/03/31 02:45:36;;;;;;;4.95;2.00;;;;;;;19.67;54.40;99225.81;4994356;28;20081;-67
2023/03/31 02:48:08;;;;;;;3.08;1.50;;;;;;;19.65;54.20;99218.91;4994294;28;20030;-67
2023/03/31 02:51:01;;;;;;;3.05;1.73;;;;;;;19.64;54.19;99217.22;5010459;28;20108;-67
2023/03/31 02:53:52;;;;;;;3.05;1.48;;;;;;;19.65;54.11;99213.63;5008420;28;20028;-67
2023/03/31 02:56:42;;;;;;;2.15;1.40;;;;;;;19.64;54.27;99226.03;5013128;28;20033;-65
2023/03/31 02:59:20;;;;;;;2.92;1.60;;;;;;;19.62;54.15;99227.06;4996103;28;20116;-67
2023/03/31 03:02:22;;;;;;;2.90;1.55;;;;;;;19.63;54.31;99226.97;5013531;28;20033;-67
2023/03/31 03:05:07;;;;;;;3.60;1.92;;;;;;;19.62;54.41;99235.00;4877223;29;20043;-66
2023/03/31 03:08:01;;;;;;;3.10;1.70;;;;;;;19.64;54.38;99225.16;4877114;29;20029;-65
2023/03/31 03:10:44;;;;;;;3.30;1.65;;;;;;;19.62;54.18;99225.28;4872801;29;20041;-69
2023/03/31 03:13:22;;;;;;;2.92;1.60;;;;;;;19.62;54.44;99235.00;4877059;29;20048;-66
2023/03/31 03:15:57;;;;;;;2.70;1.50;;;;;;;19.62;54.32;99224.41;4876955;29;20413;-66
2023/03/31 03:18:22;;;;;;;3.80;1.48;;;;;;;19.61;54.28;99234.13;4895013;29;20024;-67
2023/03/31 03:20:49;;;;;;;2.97;1.23;;;;;;;19.59;54.19;99233.38;4914693;29;20119;-67
2023/03/31 03:23:16;;;;;;;2.92;1.25;;;;;;;19.59;54.30;99217.50;4914342;29;20032;-65
2023/03/31 03:25:42;;;;;;;3.42;1.67;;;;;;;19.59;54.23;99226.31;4914121;29;20097;-66
2023/03/31 03:28:08;;;;;;;3.10;1.50;;;;;;;19.57;54.22;99233.47;4914265;29;20036;-66
2023/03/31 03:30:33;;;;;;;3.00;1.30;;;;;;;19.55;54.22;99222.13;4914337;29;20519;-66
2023/03/31 03:32:59;;;;;;;2.38;1.40;;;;;;;19.56;54.23;99221.16;4914241;29;20024;-66
2023/03/31 03:35:24;;;;;;;2.95;1.70;;;;;;;19.56;54.03;99231.75;4914013;29;20101;-65
2023/03/31 03:37:50;;;;;;;2.65;1.40;;;;;;;19.57;54.14;99238.75;4914032;29;20063;-67
2023/03/31 03:40:15;;;;;;;1.77;1.38;;;;;;;19.57;54.21;99227.31;4915929;28;20032;-66
2023/03/31 03:42:41;;;;;;;2.75;1.50;;;;;;;19.56;54.33;99231.75;5012821;28;20033;-64
2023/03/31 03:45:07;;;;;;;2.33;1.52;;;;;;;19.56;54.32;99225.59;5013166;28;20041;-67
2023/03/31 03:47:32;;;;;;;3.03;1.50;;;;;;;19.56;54.30;99231.75;4995622;28;20023;-67
2023/03/31 03:49:57;;;;;;;2.72;1.50;;;;;;;19.54;54.23;99228.38;5004520;28;20096;-66
2023/03/31 03:52:23;;;;;;;2.58;1.50;;;;;;;19.56;54.11;99234.41;5012816;28;20022;-67
2023/03/31 03:54:48;;;;;;;2.45;1.48;;;;;;;19.55;54.19;99240.66;4994704;28;20396;-67
2023/03/31 03:57:14;;;;;;;2.30;1.48;;;;;;;19.55;54.16;99242.44;4993031;28;20058;-64
2023/03/31 03:59:39;;;;;;;2.45;1.38;;;;;;;19.54;54.24;99233.66;4995465;28;20046;-66
2023/03/31 04:02:05;;;;;;;2.10;1.35;;;;;;;19.53;54.19;99250.47;5012108;28;20026;-67
2023/03/31 04:04:30;;;;;;;3.42;1.60;;;;;;;19.54;54.16;99249.53;5012678;28;20464;-66
2023/03/31 04:06:56;;;;;;;1.95;1.45;;;;;;;19.53;54.01;99242.53;5004990;28;20025;-65
2023/03/31 04:09:21;;;;;;;2.25;1.40;;;;;;;19.54;54.27;99254.81;4992494;28;20535;-67
2023/03/31 04:11:47;;;;;;;2.90;1.65;;;;;;;19.53;54.20;99263.72;4975296;28;20113;-67
2023/03/31 04:14:12;;;;;;;2.10;1.27;;;;;;;19.53;54.00;99269.00;4992738;28;20049;-65
2023/03/31 04:16:39;;;;;;;2.30;1.33;;;;;;;19.55;54.03;99272.41;4992913;28;20030;-67
2023/03/31 04:19:05;;;;;;;2.90;1.25;;;;;;;19.55;54.30;99269.75;4992789;28;20031;-66
2023/03/31 04:21:33;;;;;;;3.00;1.45;;;;;;;19.54;54.05;99276.00;4992509;28;20061;-66
2023/03/31 04:24:03;;;;;;;2.45;1.60;;;;;;;19.55;54.05;99279.47;4992400;28;20031;-65
2023/03/31 04:26:41;;;;;;;2.70;1.38;;;;;;;19.53;54.20;99278.72;4992394;28;20049;-67
2023/03/31 04:29:08;;;;;;;2.88;1.55;;;;;;;19.53;53.92;99282.25;4992492;28;20038;-66
2023/03/31 04:31:37;;;;;;;1.52;1.42;;;;;;;19.53;54.08;99266.34;4992605;28;20030;-67
2023/03/31 04:34:05;;;;;;;3.05;1.60;;;;;;;19.54;53.91;99276.00;4992404;28;20085;-66
2023/03/31 04:36:32;;;;;;;2.55;1.38;;;;;;;19.54;54.03;99281.28;4992459;28;20038;-66
2023/03/31 04:38:58;;;;;;;2.60;1.40;;;;;;;19.53;53.96;99284.88;4992085;28;20105;-65
2023/03/31 04:41:26;;;;;;;3.33;1.60;;;;;;;19.52;54.27;99283.16;4992525;28;20527;-65
2023/03/31 04:43:52;;;;;;;1.92;1.40;;;;;;;19.54;54.06;99291.00;4992442;28;20427;-66
2023/03/31 04:46:17;;;;;;;4.35;1.48;;;;;;;19.51;53.92;99297.34;5008263;28;20109;-66
2023/03/31 04:48:43;;;;;;;2.45;1.50;;;;;;;19.51;54.17;99297.34;5011938;28;20022;-66
2023/03/31 04:51:09;;;;;;;2.35;1.30;;;;;;;19.50;53.96;99300.94;5011630;28;20472;-63
2023/03/31 04:53:35;;;;;;;3.60;1.40;;;;;;;19.52;54.02;99314.06;5004354;28;20022;-67
2023/03/31 04:56:00;;;;;;;2.17;1.20;;;;;;;19.51;53.98;99317.66;4997999;28;20026;-67
2023/03/31 04:58:26;;;;;;;3.03;1.58;;;;;;;19.50;54.11;99327.38;5011853;28;20028;-68
2023/03/31 05:00:52;;;;;;;2.35;1.55;;;;;;;19.50;54.21;99332.69;5011950;28;20380;-66
2023/03/31 05:03:18;;;;;;;1.73;1.20;;;;;;;19.50;53.79;99332.69;5011907;28;20029;-67
2023/03/31 05:05:44;;;;;;;3.35;1.58;;;;;;;19.50;54.08;99343.28;5011579;28;20022;-67
2023/03/31 05:08:09;;;;;;;2.47;1.40;;;;;;;19.48;54.14;99341.66;5003990;28;20766;-66
2023/03/31 05:10:35;;;;;;;3.33;1.58;;;;;;;19.48;53.76;99350.44;4992274;28;20026;-66
2023/03/31 05:13:00;;;;;;;2.72;1.40;;;;;;;19.48;53.87;99353.09;4993548;28;20030;-65
2023/03/31 05:15:25;;;;;;;3.13;1.83;;;;;;;19.48;53.73;99354.88;4995959;28;20068;-67
2023/03/31 05:17:51;;;;;;;3.45;1.60;;;;;;;19.45;54.13;99363.84;4992592;28;20018;-66
2023/03/31 05:20:18;;;;;;;3.88;1.50;;;;;;;19.45;53.84;99375.28;4995483;28;20022;-67
2023/03/31 05:22:44;;;;;;;3.40;1.85;;;;;;;19.46;53.85;99381.41;4995827;28;20043;-67
2023/03/31 05:25:13;;;;;;;2.50;1.30;;;;;;;19.45;53.79;99377.06;4995889;28;20022;-67
2023/03/31 05:27:39;;;;;;;2.92;1.48;;;;;;;19.47;53.83;99385.81;4997282;28;20018;-70
2023/03/31 05:30:05;;;;;;;2.20;1.40;;;;;;;19.44;53.78;99396.53;5002569;28;20053;-71
2023/03/31 05:32:30;;;;;;;2.00;1.30;;;;;;;19.47;53.74;99396.38;4995512;28;20472;-71
2023/03/31 05:34:56;;;;;;;2.50;1.42;;;;;;;19.46;53.79;99402.59;4994743;28;20023;-72
2023/03/31 05:37:23;;;;;;;2.58;1.50;;;;;;;19.44;53.98;99408.00;4995079;28;20030;-71
2023/03/31 05:39:49;;;;;;;2.25;1.50;;;;;;;19.44;53.85;99401.84;4997723;28;20503;-71
2023/03/31 05:42:14;;;;;;;3.88;1.58;;;;;;;19.43;54.03;99395.66;4994923;28;20030;-72
2023/03/31 05:44:40;;;;;;;2.67;1.38;;;;;;;19.43;54.05;99405.44;4993490;28;20400;-71
2023/03/31 05:47:05;;;;;;;2.40;1.40;;;;;;;19.42;53.64;99407.19;4993968;28;20543;-71
2023/03/31 05:49:30;;;;;;;2.70;1.30;;;;;;;19.43;53.63;99410.72;4993403;28;20494;-70
2023/03/31 05:51:56;;;;;;;2.35;1.50;;;;;;;19.40;53.81;99405.56;4994018;28;20037;-70
2023/03/31 05:54:21;;;;;;;3.13;1.45;;;;;;;19.41;54.02;99417.88;4993576;28;20026;-67
2023/03/31 05:56:47;;;;;;;2.22;1.40;;;;;;;19.41;53.64;99423.16;4976934;28;20117;-70
2023/03/31 05:59:13;;;;;;;2.75;1.42;;;;;;;19.41;53.86;99424.03;4977107;28;20030;-69
2023/03/31 06:01:38;;;;;;;2.38;1.48;;;;;;;19.39;53.73;99419.75;4995096;28;20531;-69
2023/03/31 06:04:04;;;;;;;2.50;1.50;;;;;;;19.39;53.74;99419.75;4994563;28;20027;-70
2023/03/31 06:06:31;;;;;;;2.42;1.23;;;;;;;19.40;53.86;99416.16;4994871;28;20026;-69
2023/03/31 06:08:57;;;;;;;2.53;1.50;;;;;;;19.38;53.91;99418.91;4994665;28;20491;-70
2023/03/31 06:11:22;;;;;;;2.67;1.13;;;;;;;19.38;53.84;99418.03;4994938;28;20026;-70
2023/03/31 06:13:48;;;;;;;3.30;1.70;;;;;;;19.40;53.69;99421.44;5004678;28;20026;-71
2023/03/31 06:16:16;;;;;;;2.80;1.60;;;;;;;19.38;53.79;99429.50;5013966;28;20026;-71
2023/03/31 06:18:42;;;;;;;3.17;1.60;;;;;;;19.39;53.87;99417.09;5010667;28;20109;-69
2023/03/31 06:21:12;;;;;;;2.38;1.63;;;;;;;19.39;53.78;99403.88;5012497;28;20036;-71
2023/03/31 06:23:37;;;;;;;2.75;1.75;;;;;;;19.37;53.74;99400.47;4997604;28;20096;-71
2023/03/31 06:26:05;;;;;;;2.60;1.67;;;;;;;19.39;53.87;99419.75;5014064;28;20495;-70
2023/03/31 06:28:31;;;;;;;2.35;1.20;;;;;;;19.39;53.59;99425.03;5014019;28;20041;-69
2023/03/31 06:31:01;;;;;;;2.13;1.17;;;;;;;19.39;53.93;99430.34;5014020;28;20033;-69
2023/03/31 06:33:26;;;;;;;2.22;1.33;;;;;;;19.39;53.73;99430.34;5013906;28;20087;-70
2023/03/31 06:35:55;;;;;;;3.13;1.50;;;;;;;19.38;53.73;99428.63;4994663;28;20069;-70
2023/03/31 06:38:20;;;;;;;3.17;1.50;;;;;;;19.39;53.85;99432.97;4996736;28;20027;-70
2023/03/31 06:40:46;;;;;;;2.45;1.48;;;;;;;19.37;53.91;99437.50;4994474;28;20023;-70
2023/03/31 06:43:11;;;;;;;2.95;1.55;;;;;;;19.37;53.90;99424.28;4994344;28;20503;-70
2023/03/31 06:45:37;;;;;;;3.92;1.90;;;;;;;19.37;53.79;99437.50;4994338;28;20025;-70
2023/03/31 06:48:02;;;;;;;2.80;1.33;;;;;;;19.40;53.69;99445.28;4994176;28;20026;-70
2023/03/31 06:50:27;;;;;;;3.30;1.40;;;;;;;19.38;53.59;99434.78;5000411;28;20049;-67
2023/03/31 06:52:54;;;;;;;3.10;1.30;;;;;;;19.37;53.69;99448.09;5004054;28;20030;-70
2023/03/31 06:55:19;;;;;;;2.28;1.33;;;;;;;19.36;53.86;99441.09;4993309;28;20025;-68
2023/03/31 06:57:45;;;;;;;3.08;1.58;;;;;;;19.34;53.95;99438.53;4993012;28;20026;-68
2023/03/31 07:00:11;;;;;;;3.50;1.50;;;;;;;19.37;53.67;99453.38;4992808;28;20023;-70
2023/03/31 07:02:36;;;;;;;3.15;1.65;;;;;;;19.35;53.78;99455.25;4992551;28;20054;-70
2023/03/31 07:05:02;;;;;;;3.80;1.52;;;;;;;19.33;53.69;99452.72;4992635;28;20056;-70
2023/03/31 07:07:31;;;;;;;3.08;1.52;;;;;;;19.35;53.52;99444.66;4995630;28;20022;-69
2023/03/31 07:09:56;;;;;;;3.72;1.65;;;;;;;19.32;53.38;99445.69;4992587;28;20515;-69
2023/03/31 07:12:22;;;;;;;3.03;1.40;;;;;;;19.32;53.44;99446.53;4992538;28;20057;-70
2023/03/31 07:14:47;;;;;;;2.90;1.80;;;;;;;19.31;53.66;99455.44;4992487;28;20022;-72
2023/03/31 07:17:12;;;;;;;3.20;1.67;;;;;;;19.31;53.61;99451.91;4999199;28;20105;-70
2023/03/31 07:19:41;;;;;;;3.38;1.88;;;;;;;19.31;53.58;99457.22;4999989;28;20034;-70
2023/03/31 07:22:07;;;;;;;3.35;1.55;;;;;;;19.31;53.61;99454.56;4993712;28;20044;-70
2023/03/31 07:24:32;;;;;;;3.58;1.70;;;;;;;19.29;53.55;99461.75;4992986;28;20105;-71
2023/03/31 07:26:58;;;;;;;3.70;1.70;;;;;;;19.30;53.65;99458.16;4993301;28;20121;-71
2023/03/31 07:29:23;;;;;;;4.05;1.92;;;;;;;19.29;53.55;99465.25;4993382;28;20490;-70
2023/03/31 07:31:49;;;;;;;4.72;2.00;;;;;;;19.28;53.48;99460.88;4993074;28;20092;-71
2023/03/31 07:34:15;;;;;;;4.53;1.90;;;;;;;19.27;53.60;99448.59;4993322;28;20081;-70
2023/03/31 07:36:40;;;;;;;4.25;1.80;;;;;;;19.26;53.48;99446.88;4992565;28;20031;-71
2023/03/31 07:39:06;;;;;;;3.15;1.55;;;;;;;19.26;53.63;99446.00;4993144;28;20041;-69
2023/03/31 07:41:32;;;;;;;5.20;1.55;;;;;;;19.27;53.36;99455.69;5010756;28;20213;-71
2023/03/31 07:43:59;;;;;;;6.13;1.85;;;;;;;19.25;53.57;99454.88;5012648;28;20048;-70
2023/03/31 07:46:26;;;;;;;4.10;1.70;;;;;;;19.28;53.51;99460.03;4994816;28;20034;-68
2023/03/31 07:48:53;;;;;;;5.65;1.88;;;;;;;19.25;53.45;99465.47;5012663;28;20036;-70
2023/03/31 07:51:22;;;;;;;4.40;1.77;;;;;;;19.26;53.68;99475.97;5012596;28;20042;-70
2023/03/31 07:53:51;;;;;;;4.88;1.90;;;;;;;19.28;53.61;99466.16;5002989;28;20041;-69
2023/03/31 07:56:18;;;;;;;5.47;1.80;;;;;;;19.28;53.20;99460.03;4992800;28;20097;-69
2023/03/31 07:58:45;;;;;;;4.97;1.85;;;;;;;19.27;53.51;99461.81;4992895;28;20515;-67
2023/03/31 08:01:16;;;;;;;4.82;2.03;;;;;;;19.26;53.58;99457.47;4992604;28;20030;-70
2023/03/31 08:03:42;;;;;;;3.78;1.63;;;;;;;19.27;53.36;99459.16;4992823;28;20033;-70
2023/03/31 08:06:08;;;;;;;4.88;2.05;;;;;;;19.27;53.27;99459.16;4989103;28;20030;-69
2023/03/31 08:08:37;;;;;;;4.18;1.65;;;;;;;19.27;53.51;99467.09;5012159;28;20032;-70
2023/03/31 08:11:02;;;;;;;4.53;1.70;;;;;;;19.28;53.43;99460.03;4994792;28;20030;-70
2023/03/31 08:13:28;;;;;;;4.45;1.85;;;;;;;19.30;53.18;99463.44;5012406;28;20117;-70
2023/03/31 08:15:53;;;;;;;5.50;2.17;;;;;;;19.29;53.30;99465.25;5012164;28;20018;-70
2023/03/31 08:18:19;;;;;;;4.82;1.92;;;;;;;19.28;53.31;99468.81;5012190;28;20388;-70
2023/03/31 08:20:44;;;;;;;5.03;2.08;;;;;;;19.29;53.40;99467.91;5012341;28;20032;-70
2023/03/31 08:23:10;;;;;;;4.20;1.90;;;;;;;19.29;53.54;99478.47;5012053;28;20037;-70
2023/03/31 08:25:37;;;;;;;4.68;2.05;;;;;;;19.29;53.69;99477.59;4994653;28;20480;-70
2023/03/31 08:28:02;;;;;;;7.25;2.10;;;;;;;19.30;53.41;99481.97;4992520;28;20419;-69
2023/03/31 08:30:27;;;;;;;4.22;1.80;;;;;;;19.28;53.30;99475.91;4991961;28;20096;-70
2023/03/31 08:32:53;;;;;;;4.88;2.00;;;;;;;19.28;53.53;99474.09;4992467;28;20026;-69
2023/03/31 08:35:18;;;;;;;5.72;1.83;;;;;;;19.28;53.19;99475.91;4992487;28;20022;-70
2023/03/31 08:37:44;;;;;;;5.00;1.92;;;;;;;19.29;53.27;99478.47;4992393;28;20055;-69
2023/03/31 08:40:21;;;;;;;7.30;2.33;;;;;;;19.28;53.22;99486.50;4992331;28;20023;-69
2023/03/31 08:42:54;;;;;;;7.45;2.05;;;;;;;19.28;53.19;99486.50;4992268;28;20209;-68
2023/03/31 08:45:41;;;;;;;5.75;2.47;;;;;;;19.27;53.29;99490.91;4992084;28;20106;-69
2023/03/31 08:48:07;;;;;;;;;;;;;;;19.26;53.43;99494.50;5013400;28;20048;-71
2023/03/31 08:50:35;;;;;;;4.37;2.07;;;;;;;19.25;53.35;99498.09;5015788;28;19972;-70
2023/03/31 08:53:18;;;;;;;8.35;2.53;;;;;;;19.25;53.41;99500.72;5012711;28;20408;-70
2023/03/31 08:55:49;;;;;;;4.28;2.22;;;;;;;19.26;53.38;99498.94;4996263;28;20022;-69
2023/03/31 08:58:40;;;;;;;4.43;2.05;;;;;;;19.25;53.25;99490.16;4995915;28;20026;-70
2023/03/31 09:01:20;;;;;;;5.68;1.95;;;;;;;19.23;53.60;99488.53;4996199;28;20026;-71
2023/03/31 09:04:12;;;;;;;6.47;2.30;;;;;;;19.23;53.37;99494.66;4978561;28;20512;-70
2023/03/31 09:06:42;;;;;;;6.85;2.60;;;;;;;19.22;53.40;99498.22;4916850;29;20114;-69
2023/03/31 09:09:25;;;;;;;4.88;2.17;;;;;;;19.25;53.48;99500.72;4916797;29;20044;-70
2023/03/31 09:11:54;;;;;;;5.88;2.40;;;;;;;19.25;53.35;99503.38;4916770;29;20096;-71
2023/03/31 09:14:48;;;;;;;5.82;1.92;;;;;;;19.25;53.31;99498.09;4916399;29;20371;-69
2023/03/31 09:17:25;;;;;;;5.45;2.20;;;;;;;19.25;53.08;99492.78;4842005;29;20050;-69
2023/03/31 09:20:12;;;;;;;7.50;2.25;;;;;;;19.25;53.14;99491.94;4846404;29;20033;-69
2023/03/31 09:22:40;;;;;;;;;;;;;;;19.24;53.39;99491.09;4860981;29;20504;-70
2023/03/31 09:25:25;;;;;;;5.22;2.60;;;;;;;19.25;53.15;99492.78;4860361;29;19916;-69
2023/03/31 09:27:55;;;;;;;6.13;2.33;;;;;;;19.25;53.20;99502.50;4860035;29;20053;-69
2023/03/31 09:30:27;;;;;;;7.22;2.17;;;;;;;19.26;53.16;99507.72;4860230;29;20053;-69
2023/03/31 09:33:15;;;;;;;6.07;2.30;;;;;;;19.25;53.41;99507.81;4860216;29;20591;-70
2023/03/31 09:35:40;;;;;;;5.40;2.22;;;;;;;19.25;53.45;99511.31;4860037;29;20052;-69
2023/03/31 09:38:08;;;;;;;4.30;2.00;;;;;;;19.26;53.35;99505.09;4860144;29;20507;-70
2023/03/31 09:40:34;;;;;;;7.10;2.22;;;;;;;19.25;53.42;99524.53;4855456;29;20064;-70
2023/03/31 09:43:04;;;;;;;7.72;2.50;;;;;;;19.26;53.12;99539.47;4860446;29;20032;-68
2023/03/31 09:45:32;;;;;;;6.75;2.40;;;;;;;19.27;53.23;99527.13;4916188;29;20096;-70
2023/03/31 09:48:01;;;;;;;4.75;2.13;;;;;;;19.23;53.31;99526.38;4916317;29;20036;-70
2023/03/31 09:50:28;;;;;;;5.90;2.28;;;;;;;19.25;53.27;99518.38;4915936;29;20460;-69
2023/03/31 09:52:57;;;;;;;8.05;2.25;;;;;;;19.24;53.09;99506.97;4902914;28;20447;-70
2023/03/31 09:55:38;;;;;;;8.18;3.00;;;;;;;19.26;53.22;99504.22;4975837;28;20027;-70
2023/03/31 09:58:06;;;;;;;5.50;2.03;;;;;;;19.25;53.38;99492.78;4974993;28;20030;-69
2023/03/31 10:00:33;;;;;;;7.35;2.50;;;;;;;19.27;53.05;99496.19;4975453;28;20035;-70
2023/03/31 10:03:05;;;;;;;7.18;2.25;;;;;;;19.26;53.08;99489.22;4958179;28;20489;-69
2023/03/31 10:05:47;;;;;;;6.05;2.28;;;;;;;19.25;53.08;99492.78;4975281;28;20078;-69
2023/03/31 10:08:18;;;;;;;7.07;2.47;;;;;;;19.27;53.18;99504.13;4981388;28;20518;-70
2023/03/31 10:10:54;;;;;;;8.55;2.78;;;;;;;19.28;53.02;99492.63;4994794;28;20419;-69
2023/03/31 10:13:25;;;;;;;7.95;2.13;;;;;;;19.27;53.30;99496.19;4995032;28;20018;-69
2023/03/31 10:15:53;;;;;;;7.72;2.72;;;;;;;19.26;53.00;99489.22;4994803;28;20053;-70
2023/03/31 10:18:34;;;;;;;7.43;2.50;;;;;;;19.28;53.18;99487.31;4994910;28;20026;-69
2023/03/31 10:21:02;;;;;;;7.40;2.63;;;;;;;19.31;52.84;99481.88;4997389;28;20034;-70
2023/03/31 10:23:31;;;;;;;7.32;2.90;;;;;;;19.35;53.04;99481.69;4994595;28;20019;-70
2023/03/31 10:25:57;;;;;;;5.97;2.15;;;;;;;19.31;53.16;99481.88;5008518;28;20026;-70
2023/03/31 10:28:22;;;;;;;7.63;2.40;;;;;;;19.30;53.03;99474.03;5003155;28;20180;-70
2023/03/31 10:30:54;;;;;;;7.32;2.50;;;;;;;19.32;53.05;99467.72;4994600;28;20023;-70
2023/03/31 10:33:25;;;;;;;7.35;2.47;;;;;;;19.35;52.89;99471.13;4993181;28;20048;-71
2023/03/31 10:35:59;;;;;;;6.68;2.55;;;;;;;19.37;52.71;99463.97;4994456;28;20451;-70
2023/03/31 10:38:39;;;;;;;8.25;2.70;;;;;;;19.37;52.76;99448.09;4994428;28;20030;-69
2023/03/31 10:41:05;;;;;;;7.78;2.63;;;;;;;19.39;52.91;99454.16;4993817;28;20030;-70
2023/03/31 10:43:41;;;;;;;9.18;3.22;;;;;;;19.43;52.74;99450.41;4994346;28;20034;-70
2023/03/31 10:46:07;;;;;;;8.10;2.72;;;;;;;19.41;52.70;99455.78;5007856;28;20411;-69
2023/03/31 10:48:34;;;;;;;7.63;2.60;;;;;;;19.42;52.81;99448.69;4976641;28;20026;-69
2023/03/31 10:51:16;;;;;;;6.65;2.72;;;;;;;19.43;52.68;99447.75;4994196;28;20049;-68
2023/03/31 10:53:45;;;;;;;9.38;3.22;;;;;;;19.45;52.87;99444.09;4993537;28;20026;-71
2023/03/31 10:56:24;;;;;;;7.18;2.70;;;;;;;19.47;52.51;99441.38;4993968;28;20038;-70
2023/03/31 10:59:17;;;;;;;7.43;2.83;;;;;;;19.50;52.51;99443.84;4995697;28;20055;-69
2023/03/31 11:01:51;;;;;;;8.95;3.17;;;;;;;19.47;52.76;99453.72;5013247;28;20169;-70
2023/03/31 11:04:42;;;;;;;9.55;3.35;;;;;;;19.50;52.65;99458.84;5013508;28;20034;-70
2023/03/31 11:07:30;;;;;;;8.20;2.70;;;;;;;19.51;52.70;99464.06;5013436;28;20026;-67
2023/03/31 11:10:17;;;;;;;8.57;2.70;;;;;;;19.48;52.39;99453.66;4995349;28;20029;-70
2023/03/31 11:12:50;;;;;;;7.78;3.03;;;;;;;19.50;52.51;99465.00;5013199;28;20057;-70
2023/03/31 11:15:24;;;;;;;8.45;2.85;;;;;;;19.52;52.41;99470.22;5013289;28;20037;-71
2023/03/31 11:18:31;;;;;;;8.73;3.55;;;;;;;19.50;52.64;99464.13;5012993;28;20026;-70
2023/03/31 11:21:05;;;;;;;7.90;3.30;;;;;;;19.52;52.67;99467.56;4917536;29;20035;-70
2023/03/31 11:23:47;;;;;;;8.35;3.30;;;;;;;19.52;52.46;99457.81;4932892;29;20151;-70
2023/03/31 11:26:21;;;;;;;7.90;3.05;;;;;;;19.49;52.72;99452.72;4933372;29;20028;-70
2023/03/31 11:29:27;;;;;;;8.70;2.90;;;;;;;19.49;52.67;99458.00;4933138;29;20050;-70
2023/03/31 11:32:20;;;;;;;8.90;3.20;;;;;;;19.48;52.50;99440.44;4876624;29;20170;-71
2023/03/31 11:35:13;;;;;;;11.50;3.58;;;;;;;19.50;52.65;99437.66;4876705;29;20048;-69
2023/03/31 11:37:45;;;;;;;9.15;3.50;;;;;;;19.48;52.70;99429.84;4876321;29;20350;-69
2023/03/31 11:40:19;;;;;;;7.90;3.33;;;;;;;19.52;52.53;99436.66;4876492;29;20577;-68
2023/03/31 11:42:53;;;;;;;8.93;3.10;;;;;;;19.51;52.56;99429.66;4861080;29;20063;-70
2023/03/31 11:45:28;;;;;;;8.27;3.08;;;;;;;19.51;52.34;99419.06;4860904;29;20127;-68
2023/03/31 11:48:02;;;;;;;9.93;3.65;;;;;;;19.52;52.50;99412.84;4876549;29;20471;-70
2023/03/31 11:50:33;;;;;;;9.63;2.97;;;;;;;19.55;52.29;99412.69;4891152;29;20707;-69
2023/03/31 11:53:14;;;;;;;7.43;3.35;;;;;;;19.57;52.44;99418.72;4878503;29;20525;-68